createdAt,value
2019-05-26T00:00:42.097Z,13.48
2019-05-26T00:01:42.095Z,13.41
2019-05-26T00:02:42.078Z,13.38
2019-05-26T00:03:42.074Z,13.44
2019-05-26T00:04:42.052Z,13.38
2019-05-26T00:05:42.039Z,13.44
2019-05-26T00:06:42.024Z,13.36
2019-05-26T00:07:42.024Z,13.33
2019-05-26T00:08:42.010Z,13.30
2019-05-26T00:09:41.992Z,13.30
2019-05-26T00:10:41.982Z,13.26
2019-05-26T00:11:41.979Z,13.25
2019-05-26T00:12:41.965Z,13.30
2019-05-26T00:13:41.974Z,13.22
2019-05-26T00:14:41.942Z,13.20
2019-05-26T00:15:41.930Z,13.20
2019-05-26T00:16:41.928Z,13.12
2019-05-26T00:17:41.908Z,13.30
2019-05-26T00:18:41.901Z,13.17
2019-05-26T00:19:41.878Z,13.29
2019-05-26T00:20:41.872Z,13.12
2019-05-26T00:21:41.929Z,13.14
2019-05-26T00:22:41.857Z,13.25
2019-05-26T00:23:41.850Z,13.26
2019-05-26T00:24:41.836Z,13.15
2019-05-26T00:25:41.828Z,13.20
2019-05-26T00:26:41.807Z,13.17
2019-05-26T00:27:41.799Z,13.19
2019-05-26T00:28:41.793Z,13.12
2019-05-26T00:29:41.769Z,13.14
2019-05-26T00:30:41.756Z,13.17
2019-05-26T00:31:41.744Z,13.11
2019-05-26T00:32:41.738Z,13.15
2019-05-26T00:33:41.732Z,13.11
2019-05-26T00:34:41.721Z,13.15
2019-05-26T00:35:41.711Z,13.14
2019-05-26T00:36:41.696Z,13.12
2019-05-26T00:37:50.379Z,13.10
2019-05-26T00:38:42.675Z,13.08
2019-05-26T00:39:41.661Z,13.15
2019-05-26T00:40:41.650Z,13.08
2019-05-26T00:41:41.642Z,13.14
2019-05-26T00:42:41.627Z,13.08
2019-05-26T00:43:41.624Z,13.15
2019-05-26T00:44:41.599Z,13.10
2019-05-26T00:45:41.599Z,13.10
2019-05-26T00:46:41.584Z,13.03
2019-05-26T00:47:41.570Z,13.14
2019-05-26T00:48:41.563Z,13.08
2019-05-26T00:49:41.548Z,13.10
2019-05-26T00:50:41.537Z,13.10
2019-05-26T00:51:41.529Z,13.12
2019-05-26T00:52:41.515Z,13.15
2019-05-26T00:53:41.511Z,13.14
2019-05-26T00:54:41.492Z,13.14
2019-05-26T00:55:41.482Z,13.12
2019-05-26T00:56:41.474Z,13.17
2019-05-26T00:57:41.458Z,13.15
2019-05-26T00:58:41.461Z,13.17
2019-05-26T00:59:41.431Z,13.14
2019-05-26T01:00:41.427Z,13.19
2019-05-26T01:01:41.409Z,13.17
2019-05-26T01:02:41.420Z,13.15
2019-05-26T01:03:41.394Z,13.15
2019-05-26T01:04:41.408Z,13.07
2019-05-26T01:05:41.367Z,12.95
2019-05-26T01:06:41.358Z,13.00
2019-05-26T01:07:41.347Z,13.01
2019-05-26T01:08:41.340Z,12.96
2019-05-26T01:09:41.356Z,13.01
2019-05-26T01:10:41.319Z,13.01
2019-05-26T01:11:41.302Z,12.96
2019-05-26T01:12:41.286Z,12.95
2019-05-26T01:13:41.281Z,12.97
2019-05-26T01:14:41.276Z,12.95
2019-05-26T01:15:41.255Z,12.93
2019-05-26T01:16:41.247Z,12.87
2019-05-26T01:17:41.235Z,12.90
2019-05-26T01:18:41.219Z,12.92
2019-05-26T01:19:41.217Z,12.82
2019-05-26T01:20:41.198Z,12.85
2019-05-26T01:21:41.196Z,12.89
2019-05-26T01:22:41.185Z,12.87
2019-05-26T01:23:41.168Z,12.87
2019-05-26T01:24:41.162Z,12.86
2019-05-26T01:25:41.151Z,12.86
2019-05-26T01:26:41.136Z,12.83
2019-05-26T01:27:41.167Z,12.86
2019-05-26T01:28:41.115Z,12.86
2019-05-26T01:29:41.126Z,12.85
2019-05-26T01:30:41.094Z,12.85
2019-05-26T01:31:41.075Z,12.85
2019-05-26T01:32:41.069Z,12.79
2019-05-26T01:33:41.058Z,12.82
2019-05-26T01:34:41.058Z,12.78
2019-05-26T01:35:41.031Z,12.85
2019-05-26T01:36:41.020Z,12.83
2019-05-26T01:37:41.015Z,12.78
2019-05-26T01:38:41.004Z,12.82
2019-05-26T01:39:41.001Z,12.72
2019-05-26T01:40:40.976Z,12.78
2019-05-26T01:41:40.971Z,12.82
2019-05-26T01:42:40.958Z,12.82
2019-05-26T01:43:40.951Z,12.75
2019-05-26T01:44:40.955Z,12.85
2019-05-26T01:45:40.926Z,12.78
2019-05-26T01:46:40.914Z,12.77
2019-05-26T01:47:40.898Z,12.68
2019-05-26T01:48:40.888Z,12.75
2019-05-26T01:49:40.891Z,12.60
2019-05-26T01:50:40.866Z,12.65
2019-05-26T01:51:40.859Z,12.64
2019-05-26T01:52:40.871Z,12.49
2019-05-26T01:53:40.838Z,12.62
2019-05-26T01:54:41.165Z,12.62
2019-05-26T01:55:40.824Z,12.60
2019-05-26T01:56:40.803Z,12.54
2019-05-26T01:57:40.799Z,12.67
2019-05-26T01:58:40.778Z,12.53
2019-05-26T01:59:40.777Z,12.54
2019-05-26T02:00:40.756Z,12.54
2019-05-26T02:01:40.751Z,12.62
2019-05-26T02:02:40.734Z,12.47
2019-05-26T02:03:40.727Z,12.59
2019-05-26T02:04:40.728Z,12.46
2019-05-26T02:05:40.700Z,12.50
2019-05-26T02:06:40.704Z,12.56
2019-05-26T02:07:40.691Z,12.50
2019-05-26T02:08:40.667Z,12.54
2019-05-26T02:09:40.669Z,12.52
2019-05-26T02:10:40.650Z,12.53
2019-05-26T02:11:40.639Z,12.54
2019-05-26T02:12:40.628Z,12.54
2019-05-26T02:13:40.628Z,12.53
2019-05-26T02:14:40.614Z,12.56
2019-05-26T02:15:40.590Z,12.49
2019-05-26T02:16:40.598Z,12.49
2019-05-26T02:17:40.569Z,12.47
2019-05-26T02:18:40.562Z,12.49
2019-05-26T02:19:40.579Z,12.46
2019-05-26T02:20:40.535Z,12.46
2019-05-26T02:21:40.523Z,12.47
2019-05-26T02:22:40.512Z,12.46
2019-05-26T02:23:40.507Z,12.54
2019-05-26T02:24:40.497Z,12.49
2019-05-26T02:25:40.520Z,12.46
2019-05-26T02:26:40.472Z,12.46
2019-05-26T02:27:40.461Z,12.52
2019-05-26T02:28:40.447Z,12.45
2019-05-26T02:29:40.437Z,12.49
2019-05-26T02:30:40.443Z,12.45
2019-05-26T02:31:40.420Z,12.38
2019-05-26T02:32:40.407Z,12.45
2019-05-26T02:33:40.392Z,12.34
2019-05-26T02:34:40.384Z,12.37
2019-05-26T02:35:40.389Z,12.29
2019-05-26T02:36:40.366Z,12.28
2019-05-26T02:37:40.351Z,12.28
2019-05-26T02:39:00.215Z,12.28
2019-05-26T02:39:41.330Z,12.24
2019-05-26T02:40:40.329Z,12.27
2019-05-26T02:41:40.308Z,12.20
2019-05-26T02:42:40.317Z,12.19
2019-05-26T02:43:40.286Z,12.24
2019-05-26T02:44:40.275Z,12.16
2019-05-26T02:45:40.268Z,12.24
2019-05-26T02:46:40.256Z,12.24
2019-05-26T02:47:40.248Z,12.23
2019-05-26T02:48:40.225Z,12.19
2019-05-26T02:49:40.224Z,12.21
2019-05-26T02:50:40.217Z,12.19
2019-05-26T02:51:40.206Z,12.19
2019-05-26T02:52:40.202Z,12.14
2019-05-26T02:53:40.181Z,12.13
2019-05-26T02:54:40.167Z,11.99
2019-05-26T02:55:40.171Z,12.02
2019-05-26T02:56:40.146Z,12.13
2019-05-26T02:57:40.136Z,12.01
2019-05-26T02:58:40.116Z,12.01
2019-05-26T02:59:40.107Z,12.01
2019-05-26T03:00:40.103Z,11.95
2019-05-26T03:01:58.257Z,12.01
2019-05-26T03:02:41.093Z,11.98
2019-05-26T03:03:40.076Z,11.94
2019-05-26T03:04:40.051Z,11.95
2019-05-26T03:05:40.061Z,11.94
2019-05-26T03:06:40.029Z,11.98
2019-05-26T03:07:40.022Z,11.95
2019-05-26T03:08:40.012Z,11.88
2019-05-26T03:09:40.015Z,11.91
2019-05-26T03:10:39.997Z,11.90
2019-05-26T03:11:39.993Z,11.91
2019-05-26T03:12:39.967Z,11.98
2019-05-26T03:13:39.954Z,11.95
2019-05-26T03:14:39.950Z,11.98
2019-05-26T03:15:39.958Z,12.02
2019-05-26T03:16:39.925Z,12.05
2019-05-26T03:17:39.935Z,12.01
2019-05-26T03:18:39.919Z,11.95
2019-05-26T03:19:39.887Z,11.98
2019-05-26T03:20:39.887Z,11.94
2019-05-26T03:21:39.869Z,11.90
2019-05-26T03:22:39.853Z,11.75
2019-05-26T03:23:39.847Z,11.67
2019-05-26T03:24:39.836Z,11.73
2019-05-26T03:25:39.862Z,11.73
2019-05-26T03:26:39.815Z,11.67
2019-05-26T03:27:39.800Z,11.65
2019-05-26T03:28:39.795Z,11.62
2019-05-26T03:29:39.778Z,11.60
2019-05-26T03:30:39.765Z,11.55
2019-05-26T03:31:39.768Z,11.60
2019-05-26T03:32:39.807Z,11.61
2019-05-26T03:33:39.733Z,11.64
2019-05-26T03:34:39.740Z,11.60
2019-05-26T03:35:39.710Z,11.55
2019-05-26T03:36:39.717Z,11.42
2019-05-26T03:37:39.705Z,11.46
2019-05-26T03:38:39.676Z,11.49
2019-05-26T03:39:45.197Z,11.47
2019-05-26T03:40:40.660Z,11.51
2019-05-26T03:41:39.667Z,11.58
2019-05-26T03:42:39.691Z,11.54
2019-05-26T03:43:39.624Z,11.43
2019-05-26T03:44:39.613Z,11.42
2019-05-26T03:45:39.609Z,11.46
2019-05-26T03:46:39.616Z,11.42
2019-05-26T03:47:39.589Z,11.49
2019-05-26T03:48:39.581Z,11.49
2019-05-26T03:49:39.567Z,11.42
2019-05-26T03:50:39.550Z,11.37
2019-05-26T03:51:39.541Z,11.40
2019-05-26T03:52:39.522Z,11.39
2019-05-26T03:53:39.517Z,11.35
2019-05-26T03:54:39.506Z,11.36
2019-05-26T03:55:39.508Z,11.37
2019-05-26T03:56:39.493Z,11.28
2019-05-26T03:57:39.472Z,11.29
2019-05-26T03:58:39.466Z,11.29
2019-05-26T03:59:39.450Z,11.36
2019-05-26T04:00:39.446Z,11.28
2019-05-26T04:01:39.450Z,11.28
2019-05-26T04:02:39.418Z,11.28
2019-05-26T04:03:39.411Z,11.19
2019-05-26T04:04:39.390Z,11.36
2019-05-26T04:05:39.381Z,11.27
2019-05-26T04:06:39.380Z,11.15
2019-05-26T04:07:39.359Z,11.29
2019-05-26T04:08:39.348Z,11.28
2019-05-26T04:09:39.335Z,11.35
2019-05-26T04:10:39.331Z,11.39
2019-05-26T04:11:39.327Z,11.35
2019-05-26T04:12:39.319Z,11.33
2019-05-26T04:13:39.321Z,11.33
2019-05-26T04:14:39.287Z,11.42
2019-05-26T04:15:39.281Z,11.28
2019-05-26T04:16:39.272Z,11.33
2019-05-26T04:17:39.252Z,11.39
2019-05-26T04:18:39.246Z,11.39
2019-05-26T04:19:39.226Z,11.35
2019-05-26T04:20:39.213Z,11.29
2019-05-26T04:21:39.211Z,11.29
2019-05-26T04:22:39.204Z,11.28
2019-05-26T04:23:39.184Z,11.27
2019-05-26T04:24:39.173Z,11.29
2019-05-26T04:25:39.172Z,11.27
2019-05-26T04:26:39.150Z,11.28
2019-05-26T04:27:39.152Z,11.25
2019-05-26T04:28:39.125Z,11.25
2019-05-26T04:29:39.120Z,11.37
2019-05-26T04:30:39.107Z,11.28
2019-05-26T04:31:39.100Z,11.33
2019-05-26T04:32:39.090Z,11.32
2019-05-26T04:33:39.069Z,11.36
2019-05-26T04:34:39.060Z,11.29
2019-05-26T04:35:39.048Z,11.37
2019-05-26T04:36:39.048Z,11.32
2019-05-26T04:37:39.049Z,11.32
2019-05-26T04:38:39.022Z,11.42
2019-05-26T04:39:39.008Z,11.33
2019-05-26T04:40:38.992Z,11.27
2019-05-26T04:41:38.987Z,11.33
2019-05-26T04:42:38.988Z,11.29
2019-05-26T04:43:39.088Z,11.46
2019-05-26T04:44:38.948Z,11.42
2019-05-26T04:45:38.943Z,11.51
2019-05-26T04:46:38.925Z,11.40
2019-05-26T04:47:38.946Z,11.51
2019-05-26T04:48:38.924Z,11.47
2019-05-26T04:49:38.897Z,11.49
2019-05-26T04:50:38.893Z,11.54
2019-05-26T04:51:38.884Z,11.42
2019-05-26T04:52:38.887Z,11.51
2019-05-26T04:53:38.853Z,11.57
2019-05-26T04:54:38.839Z,11.52
2019-05-26T04:55:38.834Z,11.55
2019-05-26T04:56:38.816Z,11.55
2019-05-26T04:57:38.823Z,11.52
2019-05-26T04:58:38.799Z,11.52
2019-05-26T04:59:38.789Z,11.52
2019-05-26T05:00:38.779Z,11.46
2019-05-26T05:01:38.772Z,11.52
2019-05-26T05:02:38.758Z,11.51
2019-05-26T05:03:38.742Z,11.54
2019-05-26T05:04:38.731Z,11.51
2019-05-26T05:05:38.717Z,11.52
2019-05-26T05:06:38.716Z,11.57
2019-05-26T05:07:38.704Z,11.58
2019-05-26T05:08:38.687Z,11.65
2019-05-26T05:09:38.693Z,11.61
2019-05-26T05:10:42.597Z,11.60
2019-05-26T05:11:38.651Z,11.55
2019-05-26T05:12:39.163Z,11.58
2019-05-26T05:13:38.631Z,11.72
2019-05-26T05:14:38.624Z,11.61
2019-05-26T05:15:38.671Z,11.69
2019-05-26T05:16:38.602Z,11.75
2019-05-26T05:17:38.601Z,11.69
2019-05-26T05:18:38.573Z,11.75
2019-05-26T05:19:38.562Z,11.91
2019-05-26T05:20:38.575Z,11.88
2019-05-26T05:21:38.558Z,11.90
2019-05-26T05:22:38.553Z,11.95
2019-05-26T05:23:38.520Z,11.96
2019-05-26T05:24:38.518Z,11.95
2019-05-26T05:25:38.497Z,12.05
2019-05-26T05:26:38.491Z,11.99
2019-05-26T05:27:38.494Z,12.01
2019-05-26T05:28:38.471Z,11.96
2019-05-26T05:29:38.458Z,12.01
2019-05-26T05:30:38.458Z,12.17
2019-05-26T05:31:38.433Z,12.13
2019-05-26T05:32:38.438Z,12.27
2019-05-26T05:33:38.416Z,12.20
2019-05-26T05:34:38.398Z,12.27
2019-05-26T05:35:38.393Z,12.32
2019-05-26T05:36:38.382Z,12.29
2019-05-26T05:37:38.401Z,12.29
2019-05-26T05:38:38.360Z,12.34
2019-05-26T05:39:38.350Z,12.41
2019-05-26T05:40:38.338Z,12.47
2019-05-26T05:41:38.327Z,12.46
2019-05-26T05:42:38.321Z,12.53
2019-05-26T05:43:38.323Z,12.45
2019-05-26T05:44:38.293Z,12.52
2019-05-26T05:45:38.288Z,12.52
2019-05-26T05:46:38.267Z,12.52
2019-05-26T05:47:38.263Z,12.65
2019-05-26T05:48:38.257Z,12.68
2019-05-26T05:49:38.313Z,12.64
2019-05-26T05:50:39.280Z,12.67
2019-05-26T05:51:38.215Z,12.77
2019-05-26T05:52:38.205Z,12.74
2019-05-26T05:53:38.203Z,12.79
2019-05-26T05:54:38.205Z,12.83
2019-05-26T05:55:38.174Z,12.87
2019-05-26T05:56:38.154Z,12.87
2019-05-26T05:57:38.156Z,12.93
2019-05-26T05:58:38.141Z,12.95
2019-05-26T05:59:38.120Z,12.97
2019-05-26T06:00:38.107Z,13.15
2019-05-26T06:01:38.103Z,13.14
2019-05-26T06:02:38.086Z,13.14
2019-05-26T06:03:38.090Z,13.26
2019-05-26T06:04:38.071Z,13.28
2019-05-26T06:05:38.057Z,13.39
2019-05-26T06:06:38.050Z,13.30
2019-05-26T06:07:38.042Z,13.36
2019-05-26T06:08:38.030Z,13.39
2019-05-26T06:09:38.008Z,13.39
2019-05-26T06:10:37.997Z,13.45
2019-05-26T06:11:37.996Z,13.55
2019-05-26T06:12:37.993Z,13.51
2019-05-26T06:13:37.972Z,13.48
2019-05-26T06:14:37.958Z,13.49
2019-05-26T06:15:37.942Z,13.55
2019-05-26T06:16:37.936Z,13.52
2019-05-26T06:17:37.919Z,13.52
2019-05-26T06:18:37.950Z,13.57
2019-05-26T06:19:37.899Z,13.71
2019-05-26T06:20:37.891Z,13.60
2019-05-26T06:21:37.880Z,13.59
2019-05-26T06:22:37.864Z,13.63
2019-05-26T06:23:37.884Z,13.60
2019-05-26T06:24:37.841Z,13.64
2019-05-26T06:25:37.832Z,13.71
2019-05-26T06:26:37.823Z,13.79
2019-05-26T06:27:37.817Z,13.82
2019-05-26T06:28:37.822Z,13.88
2019-05-26T06:29:37.800Z,13.85
2019-05-26T06:30:37.777Z,13.88
2019-05-26T06:31:37.770Z,13.95
2019-05-26T06:32:37.765Z,13.92
2019-05-26T06:33:37.755Z,13.96
2019-05-26T06:34:37.740Z,13.85
2019-05-26T06:35:37.722Z,13.78
2019-05-26T06:36:37.720Z,13.88
2019-05-26T06:37:37.710Z,13.99
2019-05-26T06:38:37.699Z,13.95
2019-05-26T06:39:37.698Z,13.99
2019-05-26T06:40:37.677Z,14.06
2019-05-26T06:41:37.664Z,14.10
2019-05-26T06:42:37.654Z,14.06
2019-05-26T06:43:37.646Z,14.10
2019-05-26T06:44:52.373Z,14.02
2019-05-26T06:45:38.617Z,14.03
2019-05-26T06:46:37.608Z,14.09
2019-05-26T06:47:37.598Z,14.17
2019-05-26T06:48:37.618Z,14.20
2019-05-26T06:49:37.578Z,14.25
2019-05-26T06:50:37.565Z,14.33
2019-05-26T06:51:37.550Z,14.36
2019-05-26T06:52:37.554Z,14.35
2019-05-26T06:53:37.742Z,14.36
2019-05-26T06:54:37.518Z,14.47
2019-05-26T06:55:37.518Z,14.46
2019-05-26T06:56:37.501Z,14.50
2019-05-26T06:57:37.491Z,14.55
2019-05-26T06:58:37.486Z,14.54
2019-05-26T06:59:37.466Z,14.62
2019-05-26T07:00:37.462Z,14.64
2019-05-26T07:01:37.442Z,14.75
2019-05-26T07:02:37.432Z,14.80
2019-05-26T07:03:37.431Z,14.89
2019-05-26T07:04:37.436Z,14.95
2019-05-26T07:05:37.398Z,14.92
2019-05-26T07:06:37.388Z,14.95
2019-05-26T07:07:37.382Z,14.98
2019-05-26T07:08:37.369Z,15.02
2019-05-26T07:09:37.366Z,15.20
2019-05-26T07:10:37.347Z,15.20
2019-05-26T07:11:50.503Z,15.34
2019-05-26T07:12:38.323Z,15.35
2019-05-26T07:13:37.308Z,15.46
2019-05-26T07:14:37.319Z,15.41
2019-05-26T07:15:37.295Z,15.39
2019-05-26T07:16:38.767Z,15.50
2019-05-26T07:17:37.264Z,15.54
2019-05-26T07:18:37.258Z,15.43
2019-05-26T07:19:37.252Z,15.56
2019-05-26T07:20:37.232Z,15.44
2019-05-26T07:21:37.222Z,15.47
2019-05-26T07:22:37.206Z,15.47
2019-05-26T07:23:37.196Z,15.59
2019-05-26T07:24:37.202Z,15.60
2019-05-26T07:25:37.178Z,15.65
2019-05-26T07:26:37.175Z,15.74
2019-05-26T07:27:37.157Z,15.64
2019-05-26T07:28:37.141Z,15.60
2019-05-26T07:29:37.142Z,15.62
2019-05-26T07:30:37.121Z,15.60
2019-05-26T07:31:37.112Z,15.64
2019-05-26T07:32:37.102Z,15.82
2019-05-26T07:33:37.091Z,15.83
2019-05-26T07:34:37.089Z,15.93
2019-05-26T07:35:37.064Z,16.07
2019-05-26T07:36:37.051Z,16.05
2019-05-26T07:37:37.042Z,16.12
2019-05-26T07:38:37.042Z,16.23
2019-05-26T07:39:37.039Z,16.24
2019-05-26T07:40:37.017Z,16.38
2019-05-26T07:41:37.003Z,16.28
2019-05-26T07:42:36.991Z,16.30
2019-05-26T07:43:36.975Z,16.34
2019-05-26T07:44:36.973Z,16.39
2019-05-26T07:45:36.961Z,16.31
2019-05-26T07:46:36.946Z,16.25
2019-05-26T07:47:36.935Z,16.45
2019-05-26T07:48:36.918Z,16.30
2019-05-26T07:49:36.931Z,16.33
2019-05-26T07:50:36.916Z,16.33
2019-05-26T07:51:36.888Z,16.38
2019-05-26T07:52:36.873Z,16.43
2019-05-26T07:53:36.868Z,16.48
2019-05-26T07:54:36.867Z,16.50
2019-05-26T07:55:36.846Z,16.53
2019-05-26T07:56:36.830Z,16.60
2019-05-26T07:57:36.818Z,16.64
2019-05-26T07:58:36.813Z,16.70
2019-05-26T07:59:36.812Z,16.61
2019-05-26T08:00:36.795Z,16.75
2019-05-26T08:01:36.781Z,16.67
2019-05-26T08:02:36.776Z,16.73
2019-05-26T08:03:36.752Z,16.85
2019-05-26T08:04:36.750Z,16.96
2019-05-26T08:05:36.734Z,16.86
2019-05-26T08:06:36.780Z,16.88
2019-05-26T08:07:36.721Z,16.97
2019-05-26T08:08:36.701Z,17.07
2019-05-26T08:09:36.706Z,17.14
2019-05-26T08:10:36.685Z,17.12
2019-05-26T08:11:36.673Z,17.12
2019-05-26T08:12:36.659Z,17.12
2019-05-26T08:13:36.639Z,17.18
2019-05-26T08:14:36.646Z,17.14
2019-05-26T08:15:36.623Z,17.23
2019-05-26T08:16:36.605Z,17.28
2019-05-26T08:17:36.604Z,17.21
2019-05-26T08:18:36.591Z,17.26
2019-05-26T08:19:36.572Z,17.25
2019-05-26T08:20:36.577Z,17.26
2019-05-26T08:21:36.559Z,17.23
2019-05-26T08:22:36.549Z,17.23
2019-05-26T08:23:36.530Z,17.34
2019-05-26T08:24:36.524Z,17.33
2019-05-26T08:25:36.529Z,17.34
2019-05-26T08:26:36.500Z,17.49
2019-05-26T08:27:36.490Z,17.54
2019-05-26T08:28:36.472Z,17.66
2019-05-26T08:29:36.462Z,17.64
2019-05-26T08:30:36.460Z,17.66
2019-05-26T08:31:36.460Z,17.64
2019-05-26T08:32:36.444Z,17.58
2019-05-26T08:33:36.427Z,17.59
2019-05-26T08:34:36.415Z,17.62
2019-05-26T08:35:36.455Z,17.71
2019-05-26T08:36:36.383Z,17.75
2019-05-26T08:37:36.372Z,17.75
2019-05-26T08:38:36.367Z,17.78
2019-05-26T08:39:36.355Z,17.74
2019-05-26T08:40:36.355Z,17.68
2019-05-26T08:41:36.326Z,17.79
2019-05-26T08:42:44.202Z,17.79
2019-05-26T08:43:37.413Z,17.78
2019-05-26T08:44:36.300Z,17.84
2019-05-26T08:45:36.301Z,17.86
2019-05-26T08:46:36.272Z,17.93
2019-05-26T08:47:36.261Z,17.99
2019-05-26T08:48:36.260Z,18.02
2019-05-26T08:49:36.265Z,18.15
2019-05-26T08:50:36.241Z,18.08
2019-05-26T08:51:36.222Z,18.21
2019-05-26T08:52:36.205Z,18.15
2019-05-26T08:53:36.201Z,18.10
2019-05-26T08:54:36.186Z,18.15
2019-05-26T08:55:36.195Z,18.17
2019-05-26T08:56:36.165Z,18.12
2019-05-26T08:57:36.151Z,18.14
2019-05-26T08:58:36.142Z,18.14
2019-05-26T08:59:36.136Z,18.20
2019-05-26T09:00:36.127Z,18.25
2019-05-26T09:01:36.103Z,18.23
2019-05-26T09:02:36.099Z,18.33
2019-05-26T09:03:36.083Z,18.29
2019-05-26T09:04:36.173Z,18.35
2019-05-26T09:05:36.068Z,18.41
2019-05-26T09:06:36.057Z,18.42
2019-05-26T09:07:36.053Z,18.44
2019-05-26T09:08:36.030Z,18.42
2019-05-26T09:09:36.079Z,18.41
2019-05-26T09:10:36.020Z,18.45
2019-05-26T09:11:35.993Z,18.51
2019-05-26T09:12:35.983Z,18.55
2019-05-26T09:13:35.979Z,18.67
2019-05-26T09:14:35.973Z,18.66
2019-05-26T09:15:35.962Z,18.78
2019-05-26T09:16:35.947Z,18.80
2019-05-26T09:17:35.946Z,18.75
2019-05-26T09:18:35.923Z,18.76
2019-05-26T09:19:35.918Z,18.80
2019-05-26T09:20:35.910Z,18.75
2019-05-26T09:21:35.908Z,18.95
2019-05-26T09:22:35.873Z,18.82
2019-05-26T09:23:35.867Z,18.80
2019-05-26T09:24:35.856Z,18.87
2019-05-26T09:25:35.850Z,18.91
2019-05-26T09:26:35.834Z,18.88
2019-05-26T09:27:35.833Z,19.02
2019-05-26T09:28:35.810Z,19.16
2019-05-26T09:29:35.797Z,19.23
2019-05-26T09:30:35.785Z,19.33
2019-05-26T09:31:35.794Z,19.33
2019-05-26T09:32:35.769Z,19.32
2019-05-26T09:33:35.761Z,19.36
2019-05-26T09:34:35.747Z,19.36
2019-05-26T09:35:35.734Z,19.44
2019-05-26T09:36:35.733Z,19.44
2019-05-26T09:37:35.719Z,19.47
2019-05-26T09:38:35.701Z,19.48
2019-05-26T09:39:35.723Z,19.54
2019-05-26T09:40:35.691Z,19.54
2019-05-26T09:41:35.673Z,19.51
2019-05-26T09:42:35.657Z,19.61
2019-05-26T09:43:35.639Z,19.55
2019-05-26T09:44:35.635Z,19.51
2019-05-26T09:45:35.622Z,19.48
2019-05-26T09:46:35.615Z,19.58
2019-05-26T09:47:35.597Z,19.48
2019-05-26T09:48:35.583Z,19.44
2019-05-26T09:49:35.579Z,19.36
2019-05-26T09:50:35.570Z,19.33
2019-05-26T09:51:35.573Z,19.37
2019-05-26T09:52:35.551Z,19.28
2019-05-26T09:53:35.557Z,19.22
2019-05-26T09:54:35.543Z,19.25
2019-05-26T09:55:35.545Z,19.32
2019-05-26T09:56:35.503Z,19.33
2019-05-26T09:57:35.486Z,19.32
2019-05-26T09:58:35.478Z,19.46
2019-05-26T09:59:35.462Z,19.33
2019-05-26T10:00:35.453Z,19.43
2019-05-26T10:01:35.452Z,19.43
2019-05-26T10:02:35.433Z,19.58
2019-05-26T10:03:35.427Z,19.65
2019-05-26T10:04:35.409Z,19.69
2019-05-26T10:05:35.401Z,19.87
2019-05-26T10:06:35.395Z,19.91
2019-05-26T10:07:35.380Z,19.98
2019-05-26T10:08:35.366Z,19.95
2019-05-26T10:09:35.355Z,20.10
2019-05-26T10:10:35.340Z,20.10
2019-05-26T10:11:35.337Z,20.05
2019-05-26T10:12:35.319Z,20.17
2019-05-26T10:13:35.308Z,20.21
2019-05-26T10:14:35.300Z,20.28
2019-05-26T10:15:35.314Z,20.33
2019-05-26T10:16:35.288Z,20.23
2019-05-26T10:17:35.268Z,20.06
2019-05-26T10:18:35.251Z,19.99
2019-05-26T10:19:35.239Z,20.08
2019-05-26T10:20:35.230Z,20.17
2019-05-26T10:21:35.228Z,20.23
2019-05-26T10:22:35.211Z,20.39
2019-05-26T10:23:35.199Z,20.42
2019-05-26T10:24:35.190Z,20.54
2019-05-26T10:25:35.183Z,20.59
2019-05-26T10:26:35.182Z,20.43
2019-05-26T10:27:35.155Z,20.48
2019-05-26T10:28:35.143Z,20.50
2019-05-26T10:29:35.133Z,20.39
2019-05-26T10:30:35.119Z,20.50
2019-05-26T10:31:35.115Z,20.58
2019-05-26T10:32:35.109Z,20.54
2019-05-26T10:33:35.084Z,20.59
2019-05-26T10:34:35.115Z,20.62
2019-05-26T10:35:35.075Z,20.70
2019-05-26T10:36:35.069Z,20.80
2019-05-26T10:37:35.040Z,21.04
2019-05-26T10:38:35.036Z,20.98
2019-05-26T10:39:35.028Z,21.43
2019-05-26T10:40:35.013Z,21.50
2019-05-26T10:41:35.013Z,21.62
2019-05-26T10:42:34.996Z,21.27
2019-05-26T10:43:46.874Z,20.88
2019-05-26T10:44:35.966Z,20.57
2019-05-26T10:45:34.954Z,20.48
2019-05-26T10:46:34.964Z,20.70
2019-05-26T10:47:34.938Z,21.01
2019-05-26T10:48:34.998Z,21.52
2019-05-26T10:49:34.915Z,21.10
2019-05-26T10:50:34.907Z,21.46
2019-05-26T10:51:34.902Z,21.67
2019-05-26T10:52:34.878Z,22.17
2019-05-26T10:53:34.866Z,21.86
2019-05-26T10:54:34.863Z,22.05
2019-05-26T10:55:34.844Z,22.07
2019-05-26T10:56:34.911Z,22.05
2019-05-26T10:57:34.831Z,22.17
2019-05-26T10:58:34.815Z,21.77
2019-05-26T10:59:34.804Z,21.58
2019-05-26T11:00:34.835Z,21.52
2019-05-26T11:01:34.807Z,21.50
2019-05-26T11:02:34.776Z,22.22
2019-05-26T11:03:34.764Z,22.45
2019-05-26T11:04:34.754Z,22.76
2019-05-26T11:05:34.737Z,22.88
2019-05-26T11:06:34.725Z,22.80
2019-05-26T11:07:34.723Z,22.82
2019-05-26T11:08:34.709Z,22.35
2019-05-26T11:09:34.694Z,22.06
2019-05-26T11:10:34.683Z,21.79
2019-05-26T11:11:34.678Z,21.75
2019-05-26T11:12:34.710Z,21.52
2019-05-26T11:13:34.650Z,21.65
2019-05-26T11:14:34.638Z,22.00
2019-05-26T11:15:34.630Z,22.30
2019-05-26T11:16:34.619Z,22.91
2019-05-26T11:17:34.639Z,23.10
2019-05-26T11:18:34.596Z,22.75
2019-05-26T11:19:34.584Z,22.60
2019-05-26T11:20:34.574Z,22.35
2019-05-26T11:21:34.566Z,22.18
2019-05-26T11:22:34.562Z,21.90
2019-05-26T11:23:34.584Z,21.86
2019-05-26T11:24:34.547Z,22.14
2019-05-26T11:25:34.525Z,22.36
2019-05-26T11:26:34.513Z,22.51
2019-05-26T11:27:34.507Z,23.10
2019-05-26T11:28:34.490Z,23.12
2019-05-26T11:29:34.487Z,23.69
2019-05-26T11:30:34.469Z,23.65
2019-05-26T11:31:34.458Z,23.15
2019-05-26T11:32:34.456Z,22.91
2019-05-26T11:33:34.435Z,22.64
2019-05-26T11:34:34.427Z,22.51
2019-05-26T11:35:34.414Z,22.25
2019-05-26T11:36:34.410Z,22.17
2019-05-26T11:37:34.412Z,22.72
2019-05-26T11:38:34.382Z,22.92
2019-05-26T11:39:34.372Z,22.94
2019-05-26T11:40:34.365Z,23.25
2019-05-26T11:41:34.353Z,24.12
2019-05-26T11:42:34.343Z,23.60
2019-05-26T11:43:34.364Z,23.54
2019-05-26T11:44:34.325Z,23.53
2019-05-26T11:45:34.391Z,23.83
2019-05-26T11:46:34.303Z,24.80
2019-05-26T11:47:34.293Z,25.33
2019-05-26T11:48:34.275Z,25.87
2019-05-26T11:49:34.265Z,26.44
2019-05-26T11:50:34.278Z,26.63
2019-05-26T11:51:34.257Z,26.54
2019-05-26T11:52:34.241Z,26.43
2019-05-26T11:53:34.221Z,27.10
2019-05-26T11:54:34.760Z,27.50
2019-05-26T11:55:34.206Z,27.67
2019-05-26T11:56:34.191Z,27.93
2019-05-26T11:57:36.431Z,27.70
2019-05-26T11:58:34.175Z,27.85
2019-05-26T11:59:34.171Z,28.52
2019-05-26T12:00:34.158Z,28.86
2019-05-26T12:01:34.150Z,28.12
2019-05-26T12:02:34.134Z,27.63
2019-05-26T12:03:34.118Z,26.63
2019-05-26T12:04:34.110Z,26.55
2019-05-26T12:05:34.108Z,25.72
2019-05-26T12:06:34.092Z,25.03
2019-05-26T12:07:34.098Z,24.47
2019-05-26T12:08:34.074Z,24.28
2019-05-26T12:09:34.075Z,24.25
2019-05-26T12:10:34.047Z,24.08
2019-05-26T12:11:34.037Z,23.85
2019-05-26T12:12:34.043Z,23.69
2019-05-26T12:13:36.683Z,23.66
2019-05-26T12:14:35.520Z,23.63
2019-05-26T12:15:34.003Z,24.06
2019-05-26T12:16:34.044Z,24.24
2019-05-26T12:17:33.987Z,24.27
2019-05-26T12:18:33.989Z,24.24
2019-05-26T12:19:33.962Z,24.34
2019-05-26T12:20:33.947Z,24.27
2019-05-26T12:21:33.929Z,24.05
2019-05-26T12:22:33.919Z,24.02
2019-05-26T12:23:33.927Z,24.16
2019-05-26T12:24:33.897Z,24.42
2019-05-26T12:25:33.885Z,23.79
2019-05-26T12:26:33.876Z,23.58
2019-05-26T12:27:33.873Z,23.33
2019-05-26T12:28:33.874Z,23.16
2019-05-26T12:29:33.851Z,23.19
2019-05-26T12:30:33.838Z,23.12
2019-05-26T12:31:33.823Z,23.33
2019-05-26T12:32:33.816Z,23.42
2019-05-26T12:33:33.815Z,23.46
2019-05-26T12:34:33.790Z,23.23
2019-05-26T12:35:33.780Z,23.28
2019-05-26T12:36:33.769Z,23.28
2019-05-26T12:37:33.758Z,23.20
2019-05-26T12:38:33.767Z,23.05
2019-05-26T12:39:33.751Z,22.91
2019-05-26T12:40:33.730Z,22.60
2019-05-26T12:41:37.026Z,22.58
2019-05-26T12:42:33.711Z,22.46
2019-05-26T12:43:33.706Z,22.40
2019-05-26T12:44:48.231Z,22.43
2019-05-26T12:45:34.678Z,22.37
2019-05-26T12:46:33.661Z,22.31
2019-05-26T12:47:33.650Z,22.43
2019-05-26T12:48:33.654Z,22.45
2019-05-26T12:49:33.639Z,22.49
2019-05-26T12:50:33.624Z,22.65
2019-05-26T12:51:33.611Z,23.69
2019-05-26T12:52:33.612Z,24.34